createdAt,value
2022-08-17T00:00:33.294Z,17.97
2022-08-17T00:03:11.566Z,17.97
2022-08-17T00:05:45.494Z,18.00
2022-08-17T00:08:14.855Z,17.95
2022-08-17T00:10:43.928Z,18.02
2022-08-17T00:13:17.189Z,18.03
2022-08-17T00:15:45.716Z,18.04
2022-08-17T00:19:01.768Z,18.06
2022-08-17T00:21:10.359Z,18.07
2022-08-17T00:23:39.464Z,18.08
2022-08-17T00:26:15.966Z,18.03
2022-08-17T00:29:04.304Z,17.99
2022-08-17T00:31:32.161Z,18.08
2022-08-17T00:34:00.358Z,17.81
2022-08-17T00:36:29.544Z,18.08
2022-08-17T00:38:57.303Z,18.08
2022-08-17T00:41:27.292Z,18.07
2022-08-17T00:43:58.961Z,18.04
2022-08-17T00:46:30.037Z,18.02
2022-08-17T00:48:58.476Z,18.00
2022-08-17T00:51:32.855Z,18.00
2022-08-17T00:54:05.584Z,17.98
2022-08-17T00:56:37.223Z,17.58
2022-08-17T00:59:08.145Z,17.91
2022-08-17T01:01:36.185Z,17.68
2022-08-17T01:04:05.299Z,17.84
2022-08-17T01:06:34.759Z,17.83
2022-08-17T01:09:04.876Z,17.81
2022-08-17T01:11:36.106Z,17.78
2022-08-17T01:14:04.589Z,17.74
2022-08-17T01:16:33.252Z,17.62
2022-08-17T01:19:03.068Z,17.65
2022-08-17T01:21:47.200Z,17.63
2022-08-17T01:24:16.496Z,17.36
2022-08-17T01:26:45.468Z,17.68
2022-08-17T01:29:14.037Z,17.37
2022-08-17T01:31:45.831Z,17.64
2022-08-17T01:34:16.745Z,17.60
2022-08-17T01:36:47.488Z,17.46
2022-08-17T01:39:22.218Z,17.43
2022-08-17T01:41:54.392Z,17.35
2022-08-17T01:44:23.916Z,17.41
2022-08-17T01:46:51.852Z,17.38
2022-08-17T01:49:20.168Z,17.35
2022-08-17T01:51:47.962Z,16.85
2022-08-17T01:54:19.652Z,17.31
2022-08-17T01:56:50.256Z,17.28
2022-08-17T01:59:20.209Z,17.25
2022-08-17T02:01:58.820Z,17.21
2022-08-17T02:04:26.819Z,17.17
2022-08-17T02:06:54.755Z,17.15
2022-08-17T02:09:26.074Z,16.99
2022-08-17T02:11:59.208Z,17.07
2022-08-17T02:14:27.808Z,17.02
2022-08-17T02:16:56.085Z,16.99
2022-08-17T02:19:23.980Z,16.97
2022-08-17T02:21:55.190Z,16.95
2022-08-17T02:24:59.674Z,16.94
2022-08-17T02:27:16.244Z,16.85
2022-08-17T02:29:44.029Z,16.89
2022-08-17T02:32:25.289Z,16.90
2022-08-17T02:34:55.802Z,16.89
2022-08-17T02:37:23.579Z,16.89
2022-08-17T02:39:52.800Z,16.86
2022-08-17T02:42:27.649Z,16.83
2022-08-17T02:44:55.510Z,16.80
2022-08-17T02:47:23.499Z,16.75
2022-08-17T02:49:55.391Z,15.56
2022-08-17T02:52:53.640Z,16.73
2022-08-17T02:55:20.514Z,16.61
2022-08-17T02:57:49.342Z,16.71
2022-08-17T03:00:22.115Z,16.69
2022-08-17T03:02:51.178Z,16.63
2022-08-17T03:05:22.443Z,16.68
2022-08-17T03:07:50.972Z,16.70
2022-08-17T03:10:21.780Z,16.58
2022-08-17T03:12:50.271Z,16.70
2022-08-17T03:15:23.443Z,16.63
2022-08-17T03:17:52.308Z,16.69
2022-08-17T03:20:21.476Z,16.67
2022-08-17T03:22:53.303Z,16.65
2022-08-17T03:25:25.973Z,16.63
2022-08-17T03:27:54.775Z,16.63
2022-08-17T03:30:23.984Z,16.41
2022-08-17T03:32:54.740Z,16.61
2022-08-17T03:35:25.628Z,16.53
2022-08-17T03:38:00.818Z,16.61
2022-08-17T03:40:34.779Z,16.64
2022-08-17T03:43:21.504Z,16.63
2022-08-17T03:46:27.361Z,16.63
2022-08-17T03:49:27.248Z,16.64
2022-08-17T03:52:13.263Z,16.55
2022-08-17T03:54:59.106Z,16.67
2022-08-17T03:57:29.071Z,16.68
2022-08-17T03:59:58.382Z,16.70
2022-08-17T04:02:29.588Z,16.49
2022-08-17T04:04:58.477Z,16.75
2022-08-17T04:07:28.527Z,16.77
2022-08-17T04:09:57.790Z,16.56
2022-08-17T04:12:26.367Z,16.80
2022-08-17T04:14:55.556Z,16.55
2022-08-17T04:17:26.031Z,16.71
2022-08-17T04:19:55.278Z,16.83
2022-08-17T04:22:30.996Z,16.85
2022-08-17T04:25:09.366Z,16.89
2022-08-17T04:27:37.476Z,16.68
2022-08-17T04:30:08.188Z,16.92
2022-08-17T04:33:00.617Z,16.95
2022-08-17T04:35:38.420Z,16.97
2022-08-17T04:38:07.202Z,16.99
2022-08-17T04:40:53.043Z,17.04
2022-08-17T04:43:23.259Z,17.07
2022-08-17T04:45:56.583Z,17.10
2022-08-17T04:48:35.500Z,17.14
2022-08-17T04:51:10.566Z,17.19
2022-08-17T04:53:40.002Z,17.24
2022-08-17T04:56:11.752Z,17.27
2022-08-17T04:58:45.889Z,17.30
2022-08-17T05:01:16.297Z,17.32
2022-08-17T05:03:51.421Z,17.36
2022-08-17T05:06:19.196Z,17.39
2022-08-17T05:08:46.969Z,17.45
2022-08-17T05:11:15.713Z,17.44
2022-08-17T05:13:43.578Z,17.55
2022-08-17T05:16:12.018Z,17.42
2022-08-17T05:18:41.272Z,17.71
2022-08-17T05:21:09.894Z,17.81
2022-08-17T05:23:42.667Z,17.89
2022-08-17T05:26:24.743Z,18.01
2022-08-17T05:28:56.971Z,18.16
2022-08-17T05:31:26.549Z,18.19
2022-08-17T05:33:55.774Z,18.13
2022-08-17T05:36:41.763Z,18.58
2022-08-17T05:39:15.990Z,18.82
2022-08-17T05:41:44.671Z,19.04
2022-08-17T05:44:12.488Z,19.41
2022-08-17T05:46:44.669Z,19.73
2022-08-17T05:49:17.061Z,19.77
2022-08-17T05:52:06.263Z,19.71
2022-08-17T05:54:45.231Z,19.69
2022-08-17T05:57:47.533Z,19.73
2022-08-17T06:00:30.112Z,19.70
2022-08-17T06:03:37.762Z,19.84
2022-08-17T06:06:25.094Z,19.77
2022-08-17T06:09:14.769Z,19.89
2022-08-17T06:11:48.145Z,19.86
2022-08-17T06:14:39.776Z,19.97
2022-08-17T06:17:12.323Z,20.04
2022-08-17T06:19:43.535Z,20.17
2022-08-17T06:22:16.395Z,20.35
2022-08-17T06:24:49.983Z,20.58
2022-08-17T06:27:24.432Z,20.76
2022-08-17T06:29:56.964Z,21.05
2022-08-17T06:32:26.048Z,21.02
2022-08-17T06:34:55.164Z,21.14
2022-08-17T06:37:49.588Z,21.09
2022-08-17T06:40:33.681Z,21.00
2022-08-17T06:43:16.550Z,21.01
2022-08-17T06:45:49.409Z,21.15
2022-08-17T06:48:25.374Z,21.38
2022-08-17T06:50:58.536Z,21.42
2022-08-17T06:53:32.071Z,21.78
2022-08-17T06:56:06.114Z,22.16
2022-08-17T06:58:35.663Z,22.15
2022-08-17T07:01:09.246Z,23.04
2022-08-17T07:03:42.471Z,23.80
2022-08-17T07:06:16.711Z,24.40
2022-08-17T07:08:58.907Z,24.67
2022-08-17T07:11:32.980Z,24.94
2022-08-17T07:14:17.330Z,25.22
2022-08-17T07:16:48.110Z,25.25
2022-08-17T07:19:17.705Z,24.71
2022-08-17T07:21:54.924Z,24.60
2022-08-17T07:24:41.475Z,24.37
2022-08-17T07:27:15.254Z,24.08
2022-08-17T07:29:49.011Z,24.03
2022-08-17T07:32:20.097Z,24.22
2022-08-17T07:35:11.280Z,24.50
2022-08-17T07:37:41.071Z,24.91
2022-08-17T07:40:26.364Z,25.36
2022-08-17T07:43:21.959Z,25.87
2022-08-17T07:46:19.236Z,26.32
2022-08-17T07:48:50.540Z,26.63
2022-08-17T07:51:25.967Z,26.98
2022-08-17T07:54:04.809Z,27.45
2022-08-17T07:56:45.855Z,28.06
2022-08-17T07:59:18.010Z,27.91
2022-08-17T08:02:05.420Z,27.43
2022-08-17T08:04:59.212Z,27.22
2022-08-17T08:07:29.376Z,26.99
2022-08-17T08:10:10.616Z,26.68
2022-08-17T08:12:42.479Z,26.14
2022-08-17T08:15:18.487Z,26.18
2022-08-17T08:17:51.271Z,26.05
2022-08-17T08:20:51.146Z,25.89
2022-08-17T08:23:18.632Z,25.72
2022-08-17T08:25:57.306Z,25.57
2022-08-17T08:28:31.438Z,25.41
2022-08-17T08:31:09.532Z,25.27
2022-08-17T08:33:51.766Z,25.04
2022-08-17T08:37:12.982Z,24.93
2022-08-17T08:39:38.243Z,24.43
2022-08-17T08:42:16.770Z,24.58
2022-08-17T08:45:00.999Z,24.43
2022-08-17T08:47:53.130Z,24.26
2022-08-17T08:50:37.086Z,24.11
2022-08-17T08:53:28.574Z,23.95
2022-08-17T08:56:04.053Z,23.71
2022-08-17T08:58:42.079Z,23.68
2022-08-17T09:01:19.471Z,23.59
2022-08-17T09:04:25.587Z,23.42
2022-08-17T09:07:10.153Z,23.38
2022-08-17T09:09:50.520Z,23.42
2022-08-17T09:12:26.279Z,23.36
2022-08-17T09:15:01.460Z,23.31
2022-08-17T09:17:38.260Z,23.23
2022-08-17T09:20:27.670Z,23.26
2022-08-17T09:23:03.867Z,22.85
2022-08-17T09:25:37.159Z,23.24
2022-08-17T09:28:08.479Z,23.17
2022-08-17T09:30:46.930Z,23.10
2022-08-17T09:33:22.696Z,22.75
2022-08-17T09:35:55.055Z,23.14
2022-08-17T09:38:32.482Z,23.30
2022-08-17T09:41:10.238Z,23.50
2022-08-17T09:43:45.276Z,23.78
2022-08-17T09:46:18.637Z,24.16
2022-08-17T09:48:55.383Z,24.94
2022-08-17T09:51:30.263Z,26.49
2022-08-17T09:54:14.768Z,27.65
2022-08-17T09:57:18.134Z,28.06
2022-08-17T09:59:57.922Z,28.66
2022-08-17T10:02:43.615Z,28.78
2022-08-17T10:05:18.593Z,29.01
2022-08-17T10:07:55.932Z,29.74
2022-08-17T10:10:29.622Z,29.76
2022-08-17T10:13:10.791Z,31.60
2022-08-17T10:15:49.477Z,34.28
2022-08-17T10:18:34.192Z,35.05
2022-08-17T10:21:25.870Z,35.78
2022-08-17T10:24:18.613Z,36.03
2022-08-17T10:26:56.772Z,36.72
2022-08-17T10:29:46.241Z,37.82
2022-08-17T10:32:28.552Z,37.75
2022-08-17T10:35:19.056Z,36.66
2022-08-17T10:38:01.209Z,36.85
2022-08-17T10:40:37.801Z,38.60
2022-08-17T10:43:22.759Z,40.87
2022-08-17T10:46:30.531Z,40.99
2022-08-17T10:49:48.492Z,39.49
2022-08-17T11:07:57.191Z,40.29
2022-08-17T11:11:13.673Z,38.32
2022-08-17T11:45:51.785Z,32.31
2022-08-17T11:50:14.652Z,32.61
2022-08-17T11:54:53.605Z,33.24
2022-08-17T11:59:20.723Z,33.17
2022-08-17T13:05:03.981Z,30.38
2022-08-17T13:08:59.637Z,30.29
2022-08-17T13:25:40.548Z,30.80
2022-08-17T14:01:28.233Z,29.97
2022-08-17T14:04:11.781Z,29.74
2022-08-17T14:10:20.066Z,29.81
2022-08-17T14:13:29.130Z,30.00
2022-08-17T14:16:39.566Z,30.05
2022-08-17T14:19:16.382Z,29.91
2022-08-17T14:21:48.786Z,29.80
2022-08-17T14:24:38.955Z,29.68
2022-08-17T14:27:17.701Z,29.50
2022-08-17T14:29:54.317Z,29.41
2022-08-17T14:32:29.867Z,29.36
2022-08-17T14:35:00.754Z,29.40
2022-08-17T14:37:31.396Z,29.29
2022-08-17T14:40:02.927Z,29.15
2022-08-17T14:42:32.755Z,29.06
2022-08-17T14:45:04.450Z,28.95
2022-08-17T14:47:39.557Z,28.83
2022-08-17T14:50:13.504Z,28.71
2022-08-17T14:52:48.505Z,28.63
2022-08-17T14:55:21.593Z,28.75
2022-08-17T14:57:52.236Z,28.83
2022-08-17T15:00:24.029Z,28.82
2022-08-17T15:02:56.722Z,28.93
2022-08-17T15:05:31.906Z,28.67
2022-08-17T15:08:02.151Z,28.74
2022-08-17T15:10:32.412Z,28.72
2022-08-17T15:13:01.503Z,28.58
2022-08-17T15:15:30.098Z,28.18
2022-08-17T15:17:59.947Z,28.38
2022-08-17T15:20:31.281Z,28.31
2022-08-17T15:22:59.850Z,28.42
2022-08-17T15:25:30.269Z,28.35
2022-08-17T15:27:59.037Z,28.28
2022-08-17T15:30:28.482Z,28.24
2022-08-17T15:32:58.803Z,28.17
2022-08-17T15:35:35.613Z,27.82
2022-08-17T15:38:11.556Z,28.06
2022-08-17T15:40:42.346Z,27.97
2022-08-17T15:43:13.915Z,27.92
2022-08-17T15:45:42.195Z,27.89
2022-08-17T15:48:10.640Z,27.74
2022-08-17T15:50:39.810Z,27.81
2022-08-17T15:53:07.736Z,27.79
2022-08-17T15:55:36.627Z,27.78
2022-08-17T15:58:04.735Z,27.79
2022-08-17T16:00:44.115Z,27.75
2022-08-17T16:03:58.211Z,27.79
2022-08-17T16:06:09.831Z,27.76
2022-08-17T16:08:41.685Z,27.67
2022-08-17T16:11:10.912Z,27.36
2022-08-17T16:13:39.513Z,27.68
2022-08-17T16:16:08.310Z,27.63
2022-08-17T16:18:36.499Z,27.64
2022-08-17T16:21:21.835Z,27.66
2022-08-17T16:23:53.378Z,27.64
2022-08-17T16:26:22.873Z,27.63
2022-08-17T16:28:51.298Z,27.63
2022-08-17T16:31:19.152Z,27.28
2022-08-17T16:34:16.306Z,27.59
2022-08-17T16:36:37.365Z,27.45
2022-08-17T16:39:06.686Z,27.30
2022-08-17T16:41:46.618Z,27.54
2022-08-17T16:44:16.805Z,27.28
2022-08-17T16:46:45.998Z,27.50
2022-08-17T16:49:35.969Z,27.50
2022-08-17T16:52:05.761Z,27.45
2022-08-17T16:54:35.849Z,27.41
2022-08-17T16:57:04.999Z,27.38
2022-08-17T16:59:40.749Z,27.33
2022-08-17T17:02:14.220Z,27.29
2022-08-17T17:04:47.386Z,27.26
2022-08-17T17:07:44.864Z,27.25
2022-08-17T17:10:18.110Z,27.25
2022-08-17T17:13:02.090Z,27.25
2022-08-17T17:15:42.365Z,27.20
2022-08-17T17:18:15.167Z,26.43
2022-08-17T17:20:48.793Z,27.10
2022-08-17T17:23:33.146Z,26.90
2022-08-17T17:26:12.533Z,26.91
2022-08-17T17:28:53.078Z,26.73
2022-08-17T17:31:24.100Z,26.75
2022-08-17T17:33:55.859Z,26.67
2022-08-17T17:36:27.269Z,26.56
2022-08-17T17:39:01.262Z,26.19
2022-08-17T17:41:34.932Z,26.40
2022-08-17T17:44:09.125Z,26.02
2022-08-17T17:46:40.805Z,25.97
2022-08-17T17:49:10.525Z,26.05
2022-08-17T17:52:02.832Z,25.74
2022-08-17T17:54:49.882Z,25.92
2022-08-17T17:57:27.621Z,25.84
2022-08-17T18:00:03.524Z,25.78
2022-08-17T18:02:52.594Z,25.70
2022-08-17T18:05:35.731Z,25.59
2022-08-17T18:08:15.757Z,25.22
2022-08-17T18:10:50.842Z,25.44
2022-08-17T18:13:35.341Z,25.34
2022-08-17T18:16:07.883Z,25.20
2022-08-17T18:18:40.580Z,25.02
2022-08-17T18:21:16.742Z,24.81
2022-08-17T18:23:51.784Z,24.55
2022-08-17T18:26:38.015Z,24.66
2022-08-17T18:29:22.278Z,24.51
2022-08-17T18:32:10.302Z,24.37
2022-08-17T18:34:46.987Z,24.22
2022-08-17T18:37:32.835Z,24.07
2022-08-17T18:40:04.696Z,23.83
2022-08-17T18:42:32.655Z,23.83
2022-08-17T18:45:01.946Z,23.73
2022-08-17T18:47:30.571Z,23.62
2022-08-17T18:50:02.253Z,23.40
2022-08-17T18:52:32.373Z,23.39
2022-08-17T18:55:09.663Z,23.21
2022-08-17T18:57:40.820Z,23.17
2022-08-17T19:00:18.514Z,23.07
2022-08-17T19:02:53.402Z,22.95
2022-08-17T19:05:34.201Z,22.86
2022-08-17T19:08:22.411Z,22.75
2022-08-17T19:10:52.962Z,22.67
2022-08-17T19:13:25.568Z,22.59
2022-08-17T19:16:07.793Z,22.46
2022-08-17T19:18:47.295Z,22.32
2022-08-17T19:21:20.585Z,22.26
2022-08-17T19:23:54.574Z,22.22
2022-08-17T19:26:53.884Z,21.66
2022-08-17T19:29:19.524Z,22.03
2022-08-17T19:31:52.764Z,21.95
2022-08-17T19:34:32.338Z,21.86
2022-08-17T19:37:08.850Z,21.39
2022-08-17T19:39:44.021Z,21.54
2022-08-17T19:42:16.149Z,21.60
2022-08-17T19:44:55.192Z,21.31
2022-08-17T19:47:54.238Z,19.98
2022-08-17T19:50:31.058Z,21.41
2022-08-17T19:53:07.201Z,21.35
2022-08-17T19:55:47.552Z,21.27
2022-08-17T19:58:42.925Z,21.19
2022-08-17T20:01:18.583Z,20.69
2022-08-17T20:03:54.471Z,21.01
2022-08-17T20:06:24.004Z,20.99
2022-08-17T20:08:59.415Z,20.92
2022-08-17T20:11:33.207Z,20.61
2022-08-17T20:14:05.588Z,20.79
2022-08-17T20:16:34.371Z,20.74
2022-08-17T20:19:08.770Z,20.68
2022-08-17T20:21:42.304Z,20.62
2022-08-17T20:24:20.907Z,20.54
2022-08-17T20:26:58.552Z,20.48
2022-08-17T20:29:40.287Z,20.44
2022-08-17T20:32:25.205Z,20.39
2022-08-17T20:35:08.935Z,20.26
2022-08-17T20:37:43.004Z,20.25
2022-08-17T20:40:25.825Z,20.09
2022-08-17T20:42:53.751Z,20.13
2022-08-17T20:45:57.682Z,19.95
2022-08-17T20:48:38.723Z,19.95
2022-08-17T20:51:22.303Z,19.97
2022-08-17T20:54:26.372Z,19.93
2022-08-17T20:56:57.680Z,19.56
2022-08-17T20:59:55.105Z,19.86
2022-08-17T21:02:26.237Z,19.82
2022-08-17T21:05:07.302Z,19.80
2022-08-17T21:07:58.852Z,19.74
2022-08-17T21:10:36.451Z,19.58
2022-08-17T21:13:46.708Z,19.61
2022-08-17T21:16:36.024Z,19.46
2022-08-17T21:19:19.477Z,19.03
2022-08-17T21:22:02.781Z,18.69
2022-08-17T21:24:46.562Z,19.30
2022-08-17T21:27:28.360Z,19.30
2022-08-17T21:30:22.178Z,18.96
2022-08-17T21:33:25.408Z,19.20
2022-08-17T21:36:16.375Z,19.16
2022-08-17T21:39:02.596Z,18.82
2022-08-17T21:41:36.480Z,18.80
2022-08-17T21:44:13.087Z,17.96
2022-08-17T21:46:46.529Z,17.30
2022-08-17T21:49:17.760Z,17.28
2022-08-17T21:51:51.338Z,18.85
2022-08-17T21:54:31.351Z,18.16
2022-08-17T21:57:03.070Z,17.95
2022-08-17T21:59:35.927Z,18.84
2022-08-17T22:02:06.807Z,18.50
2022-08-17T22:04:37.744Z,18.27
2022-08-17T22:07:08.287Z,17.74
2022-08-17T22:09:43.122Z,18.84
2022-08-17T22:12:17.148Z,17.38
2022-08-17T22:14:51.586Z,18.39
2022-08-17T22:17:24.679Z,18.48
2022-08-17T22:19:56.807Z,18.77
2022-08-17T22:22:32.840Z,18.75
2022-08-17T22:25:03.436Z,18.72
2022-08-17T22:27:56.419Z,18.71
2022-08-17T22:30:36.196Z,18.59
2022-08-17T22:33:36.212Z,18.59
2022-08-17T22:36:28.880Z,18.22
2022-08-17T22:38:59.931Z,18.52
2022-08-17T22:41:42.184Z,18.62
2022-08-17T22:44:24.951Z,18.25
2022-08-17T22:47:11.742Z,18.55
2022-08-17T22:49:53.167Z,17.73
2022-08-17T22:52:33.299Z,17.55
2022-08-17T22:55:23.020Z,18.49
2022-08-17T22:58:09.665Z,18.41
2022-08-17T23:00:43.211Z,18.44
2022-08-17T23:03:18.078Z,18.39
2022-08-17T23:06:03.361Z,17.20
2022-08-17T23:08:34.233Z,17.97
2022-08-17T23:11:03.877Z,17.71
2022-08-17T23:13:33.294Z,18.29
2022-08-17T23:16:02.618Z,18.27
2022-08-17T23:18:30.488Z,18.25
2022-08-17T23:20:58.300Z,18.07
2022-08-17T23:23:26.512Z,18.21
2022-08-17T23:25:54.502Z,18.18
2022-08-17T23:28:22.390Z,18.16
2022-08-17T23:30:50.338Z,18.11
2022-08-17T23:33:22.510Z,18.10
2022-08-17T23:35:50.353Z,16.89
2022-08-17T23:38:18.173Z,18.08
2022-08-17T23:40:46.468Z,18.04
2022-08-17T23:43:24.655Z,18.02
2022-08-17T23:45:56.398Z,17.98
2022-08-17T23:48:35.844Z,17.96
2022-08-17T23:51:09.672Z,17.92
2022-08-17T23:53:42.623Z,17.45
2022-08-17T23:56:11.690Z,17.85
2022-08-17T23:58:41.865Z,17.83
